Time;durP1;ratioP1;P1;durP2;ratioP2;P2;SDS_P1;SDS_P2;PMS_P1;PMS_P2;Temp;Humidity;BMP_temperature;BMP_pressure;BME280_temperature;BME280_humidity;BME280_pressure;Samples;Min_cycle;Max_cycle;Signal;HPM_P1;HPM_P2
2022/01/31 00:00:59;;;;;;;7.23;3.63;;;;;;;;;;5058945;28;20243;-60
2022/01/31 00:03:38;;;;;;;7.73;3.63;;;;;;;;;;5058653;28;20526;-60
2022/01/31 00:06:07;;;;;;;9.90;3.17;;;;;;;;;;5059836;28;20216;-60
2022/01/31 00:08:42;;;;;;;8.90;3.37;;;;;;;;;;5048083;28;20212;-60
2022/01/31 00:11:09;;;;;;;8.97;3.83;;;;;;;;;;5053666;28;20203;-61
2022/01/31 00:13:39;;;;;;;7.30;3.67;;;;;;;;;;5067995;28;20248;-60
2022/01/31 00:16:13;;;;;;;7.90;3.47;;;;;;;;;;5080870;28;20188;-60
2022/01/31 00:18:54;;;;;;;6.23;3.80;;;;;;;;;;5056164;28;20189;-60
2022/01/31 00:21:32;;;;;;;10.97;3.13;;;;;;;;;;5067511;28;20176;-60
2022/01/31 00:24:01;;;;;;;5.63;3.23;;;;;;;;;;5058937;28;20188;-60
2022/01/31 00:26:30;;;;;;;8.77;3.77;;;;;;;;;;5062259;28;20536;-60
2022/01/31 00:28:57;;;;;;;4.83;2.60;;;;;;;;;;5083641;28;20555;-60
2022/01/31 00:31:23;;;;;;;12.23;3.47;;;;;;;;;;5067931;28;20221;-60
2022/01/31 00:34:21;;;;;;;4.37;2.97;;;;;;;;;;5064466;28;20658;-61
2022/01/31 00:36:48;;;;;;;5.20;3.17;;;;;;;;;;5084756;28;20635;-61
2022/01/31 00:39:21;;;;;;;5.20;2.70;;;;;;;;;;5088216;28;20184;-60
2022/01/31 00:42:03;;;;;;;6.30;2.87;;;;;;;;;;5068154;28;20227;-61
2022/01/31 00:44:44;;;;;;;7.17;3.83;;;;;;;;;;5068182;28;20217;-60
2022/01/31 00:47:21;;;;;;;5.23;2.77;;;;;;;;;;5094399;28;20529;-60
2022/01/31 00:49:52;;;;;;;6.10;2.60;;;;;;;;;;5068882;28;20214;-60
2022/01/31 00:52:18;;;;;;;8.70;2.83;;;;;;;;;;5089935;28;20168;-60
2022/01/31 00:55:12;;;;;;;9.97;3.43;;;;;;;;;;5068114;28;20274;-61
2022/01/31 00:57:44;;;;;;;8.07;2.60;;;;;;;;;;5076015;28;20219;-60
2022/01/31 01:00:23;;;;;;;8.03;3.03;;;;;;;;;;5079732;28;20180;-60
2022/01/31 01:02:52;;;;;;;6.77;2.73;;;;;;;;;;5061943;28;20188;-60
2022/01/31 01:05:22;;;;;;;6.03;2.93;;;;;;;;;;5080684;28;20180;-60
2022/01/31 01:07:48;;;;;;;9.37;3.30;;;;;;;;;;5058740;28;20195;-60
2022/01/31 01:10:19;;;;;;;8.73;3.00;;;;;;;;;;5066972;28;20179;-60
2022/01/31 01:12:47;;;;;;;8.20;3.03;;;;;;;;;;5083182;28;20180;-60
2022/01/31 01:15:14;;;;;;;5.63;3.13;;;;;;;;;;5064851;28;20571;-60
2022/01/31 01:17:41;;;;;;;6.97;3.20;;;;;;;;;;5077051;28;20185;-60
2022/01/31 01:22:56;;;;;;;6.87;2.80;;;;;;;;;;5076010;28;20224;-60
2022/01/31 01:25:22;;;;;;;6.63;2.87;;;;;;;;;;5081467;28;20214;-60
2022/01/31 01:27:52;;;;;;;8.00;3.33;;;;;;;;;;5083061;28;20176;-60
2022/01/31 01:33:11;;;;;;;8.70;3.63;;;;;;;;;;5066271;28;20207;-60
2022/01/31 01:35:50;;;;;;;10.07;3.53;;;;;;;;;;5052540;28;20887;-60
2022/01/31 01:38:28;;;;;;;5.77;2.80;;;;;;;;;;5049960;28;20212;-60
2022/01/31 01:41:04;;;;;;;6.97;3.30;;;;;;;;;;5043949;28;20286;-60
2022/01/31 01:43:30;;;;;;;8.70;3.67;;;;;;;;;;5057231;28;20544;-60
2022/01/31 01:45:57;;;;;;;6.47;2.60;;;;;;;;;;5042062;28;20683;-60
2022/01/31 01:48:32;;;;;;;5.27;2.73;;;;;;;;;;5057942;28;20718;-60
2022/01/31 01:50:59;;;;;;;9.43;3.63;;;;;;;;;;5061356;28;20208;-60
2022/01/31 01:53:29;;;;;;;6.03;2.80;;;;;;;;;;5060768;28;20590;-60
2022/01/31 01:56:09;;;;;;;7.43;2.87;;;;;;;;;;5068150;28;20298;-60
2022/01/31 02:01:51;;;;;;;6.67;2.80;;;;;;;;;;5068768;28;20180;-60
2022/01/31 02:04:43;;;;;;;6.40;2.40;;;;;;;;;;5036545;28;20293;-60
2022/01/31 02:07:21;;;;;;;7.17;2.77;;;;;;;;;;5054856;28;20541;-60
2022/01/31 02:09:58;;;;;;;5.53;2.97;;;;;;;;;;5036424;28;20218;-60
2022/01/31 02:12:28;;;;;;;5.90;2.20;;;;;;;;;;5060506;28;20539;-60
2022/01/31 02:14:58;;;;;;;7.57;3.13;;;;;;;;;;5064220;28;20184;-60
2022/01/31 02:20:21;;;;;;;8.37;2.90;;;;;;;;;;5058930;28;20197;-60
2022/01/31 02:22:53;;;;;;;10.03;2.93;;;;;;;;;;5064398;28;20192;-60
2022/01/31 02:25:22;;;;;;;11.27;2.50;;;;;;;;;;5043460;28;20451;-59
2022/01/31 02:28:04;;;;;;;9.20;2.83;;;;;;;;;;5054561;28;20568;-59
2022/01/31 02:30:30;;;;;;;6.63;2.73;;;;;;;;;;5061384;28;20221;-58
2022/01/31 02:32:56;;;;;;;6.17;2.77;;;;;;;;;;5062015;28;20176;-58
2022/01/31 02:35:28;;;;;;;7.47;2.87;;;;;;;;;;5066834;28;20541;-58
2022/01/31 02:37:55;;;;;;;5.07;2.73;;;;;;;;;;5064206;28;20576;-58
2022/01/31 02:40:24;;;;;;;8.87;3.17;;;;;;;;;;5083250;28;20188;-59
2022/01/31 02:43:15;;;;;;;10.27;2.80;;;;;;;;;;5080333;28;20186;-58
2022/01/31 02:45:48;;;;;;;4.27;2.73;;;;;;;;;;5072829;28;20184;-58
2022/01/31 02:48:23;;;;;;;6.47;2.40;;;;;;;;;;5058230;28;20550;-59
2022/01/31 02:50:52;;;;;;;6.60;2.70;;;;;;;;;;5058586;28;20496;-59
2022/01/31 02:53:27;;;;;;;5.73;3.20;;;;;;;;;;5057954;28;20218;-59
2022/01/31 02:55:55;;;;;;;8.67;3.27;;;;;;;;;;5077842;28;20179;-58
2022/01/31 03:01:17;;;;;;;5.40;2.53;;;;;;;;;;5072785;28;20275;-59
2022/01/31 03:03:56;;;;;;;13.40;3.43;;;;;;;;;;5070727;28;20227;-58
2022/01/31 03:06:26;;;;;;;6.13;2.47;;;;;;;;;;5055551;28;20186;-58
2022/01/31 03:08:53;;;;;;;8.53;3.53;;;;;;;;;;5087536;28;20654;-58
2022/01/31 03:11:26;;;;;;;6.57;3.07;;;;;;;;;;5065049;28;20706;-59
2022/01/31 03:13:58;;;;;;;5.23;3.13;;;;;;;;;;5067549;28;20554;-59
2022/01/31 03:16:24;;;;;;;9.03;3.20;;;;;;;;;;5074750;28;20714;-59
2022/01/31 03:19:08;;;;;;;;;;;;;;;;;;;;;
2022/01/31 03:21:35;;;;;;;5.63;2.50;;;;;;;;;;5074793;28;20180;-59
2022/01/31 03:24:01;;;;;;;6.67;2.80;;;;;;;;;;5063127;28;20263;-59
2022/01/31 03:26:27;;;;;;;7.73;2.33;;;;;;;;;;5084879;28;20176;-59
2022/01/31 03:28:53;;;;;;;6.50;2.67;;;;;;;;;;5078289;28;20228;-58
2022/01/31 03:31:20;;;;;;;6.67;2.30;;;;;;;;;;5077661;28;20169;-59
2022/01/31 03:33:47;;;;;;;5.73;2.70;;;;;;;;;;5075785;28;20648;-58
2022/01/31 03:36:13;;;;;;;3.90;2.40;;;;;;;;;;5086972;28;20207;-58
2022/01/31 03:38:41;;;;;;;4.33;2.77;;;;;;;;;;5075238;28;20600;-58
2022/01/31 03:41:08;;;;;;;4.93;2.37;;;;;;;;;;5084645;28;20461;-58
2022/01/31 03:43:36;;;;;;;4.13;2.50;;;;;;;;;;5085042;28;20180;-58
2022/01/31 03:46:02;;;;;;;3.97;2.60;;;;;;;;;;5081325;28;20184;-58
2022/01/31 03:48:29;;;;;;;4.73;2.60;;;;;;;;;;5084430;28;20210;-58
2022/01/31 03:50:55;;;;;;;3.73;2.27;;;;;;;;;;5078952;28;20176;-58
2022/01/31 03:53:23;;;;;;;7.00;2.40;;;;;;;;;;5066158;28;20566;-58
2022/01/31 03:55:52;;;;;;;4.83;2.50;;;;;;;;;;5087886;28;20226;-58
2022/01/31 03:58:25;;;;;;;8.57;2.73;;;;;;;;;;5088098;28;20176;-58
2022/01/31 04:00:51;;;;;;;4.40;2.80;;;;;;;;;;5083478;28;20203;-58
2022/01/31 04:03:18;;;;;;;3.07;2.07;;;;;;;;;;5079883;28;20214;-58
2022/01/31 04:05:45;;;;;;;2.67;2.40;;;;;;;;;;5081554;28;20227;-58
2022/01/31 04:08:19;;;;;;;3.67;2.40;;;;;;;;;;5082618;28;20206;-58
2022/01/31 04:10:45;;;;;;;4.97;2.50;;;;;;;;;;5086713;28;20222;-59
2022/01/31 04:13:16;;;;;;;8.30;2.97;;;;;;;;;;5081743;28;20271;-59
2022/01/31 04:15:42;;;;;;;5.00;2.97;;;;;;;;;;5092271;28;20166;-58
2022/01/31 04:21:18;;;;;;;;;;;;;;;;;;;;;
2022/01/31 04:23:46;;;;;;;5.40;2.77;;;;;;;;;;5062534;28;20180;-58
2022/01/31 04:26:14;;;;;;;3.97;3.40;;;;;;;;;;5071226;28;20172;-58
2022/01/31 04:29:21;;;;;;;6.10;3.40;;;;;;;;;;5067211;28;20234;-58
2022/01/31 04:31:51;;;;;;;6.60;5.43;;;;;;;;;;5057525;28;20213;-59
2022/01/31 04:34:17;;;;;;;4.83;4.17;;;;;;;;;;5061342;28;20175;-58
2022/01/31 04:36:52;;;;;;;5.97;3.13;;;;;;;;;;5061586;28;20185;-58
2022/01/31 04:39:31;;;;;;;6.83;3.57;;;;;;;;;;5065914;28;20186;-58
2022/01/31 04:42:00;;;;;;;7.30;3.27;;;;;;;;;;5066593;28;20180;-58
2022/01/31 04:44:32;;;;;;;3.97;2.73;;;;;;;;;;5058757;28;20202;-59
2022/01/31 04:47:07;;;;;;;5.33;2.87;;;;;;;;;;5052961;28;20185;-58
2022/01/31 04:49:39;;;;;;;3.83;2.87;;;;;;;;;;5045083;28;20219;-59
2022/01/31 04:52:23;;;;;;;13.93;3.60;;;;;;;;;;5051994;28;20180;-58
2022/01/31 04:54:55;;;;;;;4.97;2.80;;;;;;;;;;5049700;28;20192;-59
2022/01/31 04:57:41;;;;;;;6.47;2.63;;;;;;;;;;5048525;28;20844;-59
2022/01/31 05:00:16;;;;;;;3.07;2.70;;;;;;;;;;5039805;28;20196;-58
2022/01/31 05:02:43;;;;;;;5.93;3.20;;;;;;;;;;5044550;28;20265;-58
2022/01/31 05:05:09;;;;;;;3.67;3.37;;;;;;;;;;5046198;28;20196;-58
2022/01/31 05:07:37;;;;;;;4.77;3.03;;;;;;;;;;5068176;28;20181;-58
2022/01/31 05:10:28;;;;;;;4.30;3.03;;;;;;;;;;5046210;28;20617;-59
2022/01/31 05:13:05;;;;;;;6.20;3.33;;;;;;;;;;5051747;28;20647;-59
2022/01/31 05:15:43;;;;;;;4.00;2.70;;;;;;;;;;5054854;28;20203;-59
2022/01/31 05:18:26;;;;;;;5.13;2.67;;;;;;;;;;5053978;28;20185;-58
2022/01/31 05:20:59;;;;;;;7.80;3.83;;;;;;;;;;5058731;28;20220;-58
2022/01/31 05:23:30;;;;;;;8.00;3.43;;;;;;;;;;5046381;28;20192;-59
2022/01/31 05:26:22;;;;;;;5.17;2.87;;;;;;;;;;5051712;28;20181;-59
2022/01/31 05:28:52;;;;;;;6.03;2.80;;;;;;;;;;5040504;28;20695;-59
2022/01/31 05:31:35;;;;;;;4.83;3.23;;;;;;;;;;5046800;28;20548;-59
2022/01/31 05:34:01;;;;;;;7.50;3.10;;;;;;;;;;5044933;28;20211;-59
2022/01/31 05:36:51;;;;;;;7.03;3.10;;;;;;;;;;5066490;28;20177;-59
2022/01/31 05:39:27;;;;;;;6.60;3.27;;;;;;;;;;5062271;28;20246;-59
2022/01/31 05:42:03;;;;;;;7.23;2.80;;;;;;;;;;5042640;28;20185;-58
2022/01/31 05:44:29;;;;;;;5.97;3.57;;;;;;;;;;5058676;28;20185;-59
2022/01/31 05:47:03;;;;;;;6.67;2.87;;;;;;;;;;5067324;28;20196;-58
2022/01/31 05:49:38;;;;;;;6.27;3.20;;;;;;;;;;5050026;28;20204;-59
2022/01/31 05:52:17;;;;;;;6.07;3.23;;;;;;;;;;5049268;28;20188;-58
2022/01/31 05:54:55;;;;;;;6.73;3.23;;;;;;;;;;5046460;28;20184;-59
2022/01/31 05:57:32;;;;;;;4.27;3.10;;;;;;;;;;5033057;28;20200;-59
2022/01/31 06:00:16;;;;;;;4.20;3.07;;;;;;;;;;5044668;28;20638;-59
2022/01/31 06:03:04;;;;;;;6.50;2.90;;;;;;;;;;5048414;28;20526;-58
2022/01/31 06:05:33;;;;;;;12.33;3.30;;;;;;;;;;5062597;28;20283;-58
2022/01/31 06:08:06;;;;;;;8.73;2.67;;;;;;;;;;5047735;28;20184;-59
2022/01/31 06:10:43;;;;;;;9.60;2.97;;;;;;;;;;5046602;28;20192;-59
2022/01/31 06:13:35;;;;;;;3.63;2.80;;;;;;;;;;5062666;28;20191;-58
2022/01/31 06:16:02;;;;;;;5.93;2.60;;;;;;;;;;5050724;28;20549;-58
2022/01/31 06:18:36;;;;;;;6.50;3.33;;;;;;;;;;5064244;28;20196;-59
2022/01/31 06:21:25;;;;;;;4.50;3.20;;;;;;;;;;5045628;28;20172;-58
2022/01/31 06:24:08;;;;;;;;;;;;;;;;;;;;;
2022/01/31 06:27:03;;;;;;;5.53;2.80;;;;;;;;;;5063944;28;20180;-58
2022/01/31 06:29:30;;;;;;;7.87;2.67;;;;;;;;;;5059432;28;20274;-59
2022/01/31 06:35:06;;;;;;;6.67;2.53;;;;;;;;;;5086164;28;20191;-58
2022/01/31 06:37:38;;;;;;;13.53;3.30;;;;;;;;;;5077337;28;20566;-58
2022/01/31 06:40:05;;;;;;;5.70;3.00;;;;;;;;;;5060123;28;20188;-58
2022/01/31 06:42:46;;;;;;;8.20;3.03;;;;;;;;;;5067518;28;20186;-58
2022/01/31 06:45:25;;;;;;;6.60;2.80;;;;;;;;;;5061532;28;20777;-58
2022/01/31 06:47:57;;;;;;;4.17;2.13;;;;;;;;;;5065701;28;20638;-58
2022/01/31 06:50:41;;;;;;;4.97;2.83;;;;;;;;;;5059147;28;20270;-58
2022/01/31 06:53:07;;;;;;;6.07;2.33;;;;;;;;;;5064254;28;20176;-58
2022/01/31 06:55:36;;;;;;;7.03;2.37;;;;;;;;;;5087236;28;20229;-59
2022/01/31 06:58:20;;;;;;;8.47;2.63;;;;;;;;;;5064280;28;20987;-58
2022/01/31 07:01:07;;;;;;;11.13;3.27;;;;;;;;;;5073437;28;20160;-58
2022/01/31 07:03:42;;;;;;;9.10;2.13;;;;;;;;;;5079187;28;20639;-59
2022/01/31 07:06:23;;;;;;;3.43;1.93;;;;;;;;;;5064922;28;20233;-59
2022/01/31 07:08:50;;;;;;;5.37;1.60;;;;;;;;;;5079083;28;20636;-59
2022/01/31 07:11:51;;;;;;;6.07;2.40;;;;;;;;;;5085551;28;20183;-58
2022/01/31 07:14:32;;;;;;;3.20;1.60;;;;;;;;;;5080406;28;20530;-58
2022/01/31 07:17:12;;;;;;;3.73;1.43;;;;;;;;;;5066963;28;20640;-58
2022/01/31 07:19:45;;;;;;;1.93;1.30;;;;;;;;;;5069872;28;20256;-59
2022/01/31 07:22:25;;;;;;;10.80;1.63;;;;;;;;;;5071805;28;20563;-59
2022/01/31 07:25:03;;;;;;;7.03;1.73;;;;;;;;;;5088009;28;20693;-59
2022/01/31 07:27:30;;;;;;;3.57;1.70;;;;;;;;;;5088840;28;20190;-59
2022/01/31 07:30:01;;;;;;;7.43;1.50;;;;;;;;;;5068136;28;20674;-58
2022/01/31 07:32:30;;;;;;;2.70;1.17;;;;;;;;;;5071248;28;20187;-59
2022/01/31 07:34:57;;;;;;;4.83;1.90;;;;;;;;;;5071932;28;20175;-58
2022/01/31 07:37:35;;;;;;;5.53;1.50;;;;;;;;;;5089883;28;20184;-59
2022/01/31 07:40:02;;;;;;;5.37;1.87;;;;;;;;;;5055496;28;20184;-59
2022/01/31 07:42:28;;;;;;;4.63;1.27;;;;;;;;;;5068729;28;20584;-59
2022/01/31 07:44:54;;;;;;;2.30;1.57;;;;;;;;;;5069312;28;20670;-58
2022/01/31 07:47:29;;;;;;;5.03;1.23;;;;;;;;;;5086152;28;20732;-59
2022/01/31 07:50:04;;;;;;;4.17;1.60;;;;;;;;;;5066404;28;20191;-59
2022/01/31 07:53:02;;;;;;;3.40;1.40;;;;;;;;;;5064084;28;20184;-59
2022/01/31 07:55:38;;;;;;;2.70;1.33;;;;;;;;;;5062665;28;20184;-59
2022/01/31 07:58:10;;;;;;;2.20;1.80;;;;;;;;;;5077027;28;20203;-59
2022/01/31 08:01:13;;;;;;;2.83;1.33;;;;;;;;;;5071778;28;20179;-59
2022/01/31 08:03:40;;;;;;;3.27;2.00;;;;;;;;;;5070737;28;20183;-59
2022/01/31 08:06:15;;;;;;;3.53;1.70;;;;;;;;;;5088886;28;20176;-59
2022/01/31 08:08:41;;;;;;;6.10;1.90;;;;;;;;;;5070952;28;20202;-59
2022/01/31 08:11:16;;;;;;;5.27;1.40;;;;;;;;;;5070171;28;20186;-58
2022/01/31 08:13:45;;;;;;;7.27;1.90;;;;;;;;;;5067658;28;20283;-59
2022/01/31 08:16:13;;;;;;;5.00;2.50;;;;;;;;;;5085782;28;20257;-58
2022/01/31 08:18:57;;;;;;;6.23;2.20;;;;;;;;;;5069305;28;20248;-59
2022/01/31 08:21:35;;;;;;;5.70;2.00;;;;;;;;;;5047470;28;20180;-59
2022/01/31 08:24:07;;;;;;;4.10;1.90;;;;;;;;;;5089125;28;20172;-59
2022/01/31 08:26:49;;;;;;;4.07;2.10;;;;;;;;;;5068951;28;20204;-59
2022/01/31 08:29:28;;;;;;;2.47;1.80;;;;;;;;;;5061778;28;20697;-59
2022/01/31 08:32:06;;;;;;;4.03;2.10;;;;;;;;;;5083387;28;20617;-59
2022/01/31 08:37:25;;;;;;;6.07;2.57;;;;;;;;;;5094971;28;20178;-58
2022/01/31 08:39:54;;;;;;;4.83;1.70;;;;;;;;;;5072465;28;20184;-59
2022/01/31 08:42:21;;;;;;;2.57;2.17;;;;;;;;;;5087737;28;20529;-59
2022/01/31 08:44:47;;;;;;;4.00;1.67;;;;;;;;;;5088990;28;20190;-59
2022/01/31 08:47:20;;;;;;;4.77;1.87;;;;;;;;;;5088967;28;20331;-59
2022/01/31 08:49:46;;;;;;;4.93;1.80;;;;;;;;;;5065308;28;20246;-58
2022/01/31 08:52:15;;;;;;;4.83;2.10;;;;;;;;;;5087875;28;20222;-58
2022/01/31 08:54:42;;;;;;;7.20;2.50;;;;;;;;;;5088274;28;20179;-58
2022/01/31 08:57:28;;;;;;;7.63;1.83;;;;;;;;;;5058255;28;20200;-58
2022/01/31 08:59:57;;;;;;;9.03;2.47;;;;;;;;;;5070709;28;20194;-59
2022/01/31 09:02:37;;;;;;;4.23;2.07;;;;;;;;;;5067655;28;20184;-59
2022/01/31 09:05:09;;;;;;;7.13;2.43;;;;;;;;;;5069974;28;20223;-58
2022/01/31 09:07:41;;;;;;;5.87;2.70;;;;;;;;;;5063675;28;20203;-58
2022/01/31 09:10:14;;;;;;;5.13;1.97;;;;;;;;;;5083829;28;20834;-59
2022/01/31 09:12:49;;;;;;;9.83;1.97;;;;;;;;;;5087530;28;20184;-59
2022/01/31 09:15:22;;;;;;;7.20;2.80;;;;;;;;;;5089467;28;20603;-58
2022/01/31 09:17:48;;;;;;;5.10;1.60;;;;;;;;;;5086287;28;20176;-59
2022/01/31 09:20:20;;;;;;;4.97;2.13;;;;;;;;;;5070898;28;20220;-59
2022/01/31 09:22:47;;;;;;;10.23;2.50;;;;;;;;;;5070080;28;20666;-59
2022/01/31 09:25:31;;;;;;;;;;;;;;;;;;;;;
2022/01/31 09:27:59;;;;;;;8.20;2.80;;;;;;;;;;5082442;28;20192;-59
2022/01/31 09:30:31;;;;;;;3.93;2.00;;;;;;;;;;5067516;28;20334;-58
2022/01/31 09:33:10;;;;;;;6.73;2.13;;;;;;;;;;5068397;28;20247;-59
2022/01/31 09:35:46;;;;;;;5.07;1.57;;;;;;;;;;5079617;28;20164;-59
2022/01/31 09:38:14;;;;;;;12.93;2.67;;;;;;;;;;5082812;28;20577;-59
2022/01/31 09:40:50;;;;;;;7.07;2.63;;;;;;;;;;5081939;28;20659;-59
2022/01/31 09:51:18;;;;;;;7.50;2.07;;;;;;;;;;5089627;28;20266;-59
2022/01/31 09:54:08;;;;;;;10.77;2.43;;;;;;;;;;5069126;28;20619;-59
2022/01/31 09:56:41;;;;;;;8.13;1.90;;;;;;;;;;5086137;28;20191;-59
2022/01/31 09:59:08;;;;;;;10.07;3.17;;;;;;;;;;5068436;28;20240;-59
2022/01/31 10:01:58;;;;;;;12.17;2.77;;;;;;;;;;5086542;28;20450;-59
2022/01/31 10:04:34;;;;;;;6.90;1.87;;;;;;;;;;5084796;28;21211;-59
2022/01/31 10:07:20;;;;;;;13.10;2.53;;;;;;;;;;5068229;28;20187;-59
2022/01/31 10:09:57;;;;;;;8.90;2.70;;;;;;;;;;5068232;28;20878;-59
2022/01/31 10:16:24;;;;;;;9.17;2.27;;;;;;;;;;5086329;28;20506;-59
2022/01/31 10:18:02;;;;;;;5.27;2.10;;;;;;;;;;5081737;28;20186;-59
2022/01/31 10:20:55;;;;;;;11.17;3.10;;;;;;;;;;5073556;28;20188;-59
2022/01/31 10:23:23;;;;;;;14.30;2.93;;;;;;;;;;5086335;28;20188;-58
2022/01/31 10:26:05;;;;;;;7.20;2.70;;;;;;;;;;5067736;28;20577;-58
2022/01/31 10:28:41;;;;;;;7.30;2.73;;;;;;;;;;5068824;28;20184;-58
2022/01/31 10:31:17;;;;;;;12.00;3.07;;;;;;;;;;5047657;28;20687;-59
2022/01/31 10:34:05;;;;;;;6.60;2.53;;;;;;;;;;5083674;28;20634;-58
2022/01/31 10:36:40;;;;;;;7.13;2.27;;;;;;;;;;5085982;28;20694;-59
2022/01/31 10:43:12;;;;;;;8.10;2.53;;;;;;;;;;5068701;28;20646;-59
2022/01/31 10:53:36;;;;;;;12.13;4.63;;;;;;;;;;5091492;28;20178;-59
2022/01/31 10:56:07;;;;;;;9.27;2.70;;;;;;;;;;5069593;28;20203;-59
2022/01/31 10:58:40;;;;;;;11.33;2.57;;;;;;;;;;5072466;28;20530;-59
2022/01/31 11:01:14;;;;;;;8.23;2.53;;;;;;;;;;5072967;28;20164;-58
2022/01/31 11:03:40;;;;;;;11.93;2.73;;;;;;;;;;5071642;28;20179;-58
2022/01/31 11:06:10;;;;;;;10.33;3.00;;;;;;;;;;5071922;28;20172;-58
2022/01/31 11:08:37;;;;;;;6.47;2.40;;;;;;;;;;5072770;28;20225;-58
2022/01/31 11:11:06;;;;;;;6.63;2.30;;;;;;;;;;5056286;28;20218;-59
2022/01/31 11:13:40;;;;;;;8.63;2.50;;;;;;;;;;5090489;28;20187;-58
2022/01/31 11:16:15;;;;;;;11.13;3.50;;;;;;;;;;5071802;28;20716;-58
2022/01/31 11:18:43;;;;;;;11.13;3.00;;;;;;;;;;5078999;28;20180;-58
2022/01/31 11:21:12;;;;;;;13.17;3.53;;;;;;;;;;5086904;28;20776;-59
2022/01/31 11:23:49;;;;;;;9.97;3.03;;;;;;;;;;5072277;28;20225;-58
2022/01/31 11:26:17;;;;;;;6.50;3.03;;;;;;;;;;5077290;28;20202;-59
2022/01/31 11:28:46;;;;;;;7.90;3.37;;;;;;;;;;5071456;28;20268;-58
2022/01/31 11:31:16;;;;;;;8.43;3.00;;;;;;;;;;5090613;28;20586;-58
2022/01/31 11:33:59;;;;;;;9.07;3.20;;;;;;;;;;5063702;28;20266;-58
2022/01/31 11:36:34;;;;;;;9.70;3.67;;;;;;;;;;5090284;28;20190;-59
2022/01/31 11:39:01;;;;;;;8.40;3.23;;;;;;;;;;5067595;28;20570;-58
2022/01/31 11:41:43;;;;;;;12.97;3.63;;;;;;;;;;5088500;28;20176;-58
2022/01/31 11:44:24;;;;;;;11.97;3.53;;;;;;;;;;5054910;28;20188;-59
2022/01/31 11:46:51;;;;;;;7.80;3.20;;;;;;;;;;5084874;28;20171;-59
2022/01/31 11:49:20;;;;;;;13.17;3.83;;;;;;;;;;5089614;28;20654;-59
2022/01/31 11:52:07;;;;;;;15.83;4.27;;;;;;;;;;5088325;28;20176;-58
2022/01/31 11:54:52;;;;;;;14.40;4.13;;;;;;;;;;5087566;28;20206;-58
2022/01/31 11:57:19;;;;;;;11.50;4.00;;;;;;;;;;5088575;28;20552;-58
2022/01/31 11:59:49;;;;;;;13.33;4.07;;;;;;;;;;5070744;28;20190;-59
2022/01/31 12:02:15;;;;;;;23.73;4.73;;;;;;;;;;5071747;28;20176;-59
2022/01/31 12:04:49;;;;;;;18.53;4.50;;;;;;;;;;5086963;28;20194;-59
2022/01/31 12:10:34;;;;;;;14.93;3.90;;;;;;;;;;5088214;28;20238;-59
2022/01/31 12:16:01;;;;;;;17.83;4.00;;;;;;;;;;5072361;28;20628;-59
2022/01/31 12:24:01;;;;;;;17.33;3.53;;;;;;;;;;5089027;28;20232;-59
2022/01/31 12:26:27;;;;;;;24.10;3.60;;;;;;;;;;5090097;28;20611;-59
2022/01/31 12:29:28;;;;;;;9.60;3.63;;;;;;;;;;5071220;28;20279;-58
2022/01/31 12:32:19;;;;;;;13.13;3.60;;;;;;;;;;5066661;28;20250;-59
2022/01/31 12:35:10;;;;;;;19.10;4.53;;;;;;;;;;5069286;28;20279;-59
2022/01/31 12:37:39;;;;;;;16.30;2.87;;;;;;;;;;5071654;28;20541;-59
2022/01/31 12:40:28;;;;;;;10.47;2.87;;;;;;;;;;5089930;28;20172;-59
2022/01/31 12:43:23;;;;;;;12.33;2.57;;;;;;;;;;5088554;28;20619;-59
2022/01/31 12:45:55;;;;;;;10.03;3.13;;;;;;;;;;5086345;28;20180;-59
2022/01/31 12:48:37;;;;;;;11.37;2.87;;;;;;;;;;5064504;28;20179;-59
2022/01/31 12:51:05;;;;;;;8.57;2.70;;;;;;;;;;5070016;28;20191;-59
2022/01/31 12:56:25;;;;;;;10.83;3.77;;;;;;;;;;5088885;28;20215;-58
2022/01/31 12:59:00;;;;;;;4.70;2.40;;;;;;;;;;5069295;28;20547;-59
2022/01/31 13:01:30;;;;;;;8.40;2.33;;;;;;;;;;5086654;28;20187;-59
2022/01/31 13:04:01;;;;;;;10.43;2.93;;;;;;;;;;5052169;28;20279;-59
2022/01/31 13:06:38;;;;;;;8.67;3.40;;;;;;;;;;5088341;28;20572;-59
2022/01/31 13:09:07;;;;;;;10.97;3.20;;;;;;;;;;5070293;28;20187;-58
2022/01/31 13:11:34;;;;;;;7.93;2.17;;;;;;;;;;5084272;28;20408;-58
2022/01/31 13:14:23;;;;;;;8.10;2.90;;;;;;;;;;5086602;28;20184;-58
2022/01/31 13:17:16;;;;;;;7.03;2.77;;;;;;;;;;5068967;28;20278;-58
2022/01/31 13:19:50;;;;;;;7.53;2.67;;;;;;;;;;5062254;28;20179;-59
2022/01/31 13:22:41;;;;;;;7.27;2.67;;;;;;;;;;5086592;28;20189;-58
2022/01/31 13:25:28;;;;;;;9.67;2.50;;;;;;;;;;5087801;28;20172;-58
2022/01/31 13:27:54;;;;;;;7.80;2.10;;;;;;;;;;5072785;28;20223;-59
2022/01/31 13:30:25;;;;;;;6.17;2.23;;;;;;;;;;5072623;28;20188;-58
2022/01/31 13:32:51;;;;;;;10.10;2.53;;;;;;;;;;5047259;28;20217;-59
2022/01/31 13:35:28;;;;;;;4.97;2.40;;;;;;;;;;5042963;28;20242;-58
2022/01/31 13:37:55;;;;;;;8.20;3.03;;;;;;;;;;5034619;28;20172;-58
2022/01/31 13:40:23;;;;;;;11.47;2.57;;;;;;;;;;5049953;28;20261;-59
2022/01/31 13:43:13;;;;;;;12.17;3.10;;;;;;;;;;5048705;28;20647;-59
2022/01/31 13:48:31;;;;;;;14.23;3.40;;;;;;;;;;5063510;28;20176;-59
2022/01/31 13:51:31;;;;;;;7.47;2.93;;;;;;;;;;5067607;28;20550;-59
2022/01/31 13:54:04;;;;;;;8.73;2.87;;;;;;;;;;5064410;28;20214;-59
2022/01/31 13:56:39;;;;;;;9.57;3.10;;;;;;;;;;5047864;28;20196;-59
2022/01/31 13:59:09;;;;;;;7.13;2.23;;;;;;;;;;5048572;28;20266;-59
2022/01/31 14:01:35;;;;;;;10.77;3.13;;;;;;;;;;5062543;28;20187;-58
2022/01/31 14:04:22;;;;;;;6.93;2.10;;;;;;;;;;5066540;28;20188;-59
2022/01/31 14:07:03;;;;;;;7.23;2.40;;;;;;;;;;5048364;28;20647;-59
2022/01/31 14:09:50;;;;;;;8.13;2.27;;;;;;;;;;5061949;28;20196;-59
2022/01/31 14:12:26;;;;;;;7.67;3.27;;;;;;;;;;5046506;28;20994;-59
2022/01/31 14:15:13;;;;;;;5.83;2.37;;;;;;;;;;5042849;28;20180;-59
2022/01/31 14:17:48;;;;;;;11.63;2.50;;;;;;;;;;5039167;28;20773;-59
2022/01/31 14:20:16;;;;;;;8.97;2.80;;;;;;;;;;5060709;28;20180;-59
2022/01/31 14:23:10;;;;;;;7.23;2.97;;;;;;;;;;5059953;28;20180;-59
2022/01/31 14:25:59;;;;;;;5.23;2.40;;;;;;;;;;5043186;28;20196;-59
2022/01/31 14:28:52;;;;;;;7.47;2.33;;;;;;;;;;5046853;28;20193;-59
2022/01/31 14:31:38;;;;;;;8.73;2.97;;;;;;;;;;5055201;27;20216;-59
2022/01/31 14:34:11;;;;;;;6.83;2.50;;;;;;;;;;5066374;28;20207;-59
2022/01/31 14:36:56;;;;;;;15.20;3.00;;;;;;;;;;5081408;28;20234;-59
2022/01/31 14:39:33;;;;;;;7.30;2.53;;;;;;;;;;5063958;28;20566;-59
2022/01/31 14:47:47;;;;;;;12.67;3.33;;;;;;;;;;5079001;28;20234;-59
2022/01/31 14:50:27;;;;;;;7.67;2.43;;;;;;;;;;5076271;28;20261;-59
2022/01/31 14:53:03;;;;;;;9.70;2.83;;;;;;;;;;5058983;28;20588;-57
2022/01/31 14:55:38;;;;;;;9.07;3.17;;;;;;;;;;5064144;28;20289;-59
2022/01/31 14:58:04;;;;;;;10.77;3.80;;;;;;;;;;5059750;28;20236;-59
2022/01/31 15:00:30;;;;;;;10.27;2.53;;;;;;;;;;5079660;28;20287;-60
2022/01/31 15:03:22;;;;;;;7.43;2.43;;;;;;;;;;5080123;28;20184;-60
2022/01/31 15:06:09;;;;;;;10.60;3.33;;;;;;;;;;5055345;28;20183;-60
2022/01/31 15:08:52;;;;;;;16.07;3.27;;;;;;;;;;5064937;28;20548;-60
2022/01/31 15:11:41;;;;;;;11.37;3.20;;;;;;;;;;5062120;28;20186;-60
2022/01/31 15:14:23;;;;;;;6.83;2.63;;;;;;;;;;5061952;28;20873;-60
2022/01/31 15:17:09;;;;;;;;;;;;;;;;;;;;;
2022/01/31 15:19:38;;;;;;;12.83;3.07;;;;;;;;;;5084068;28;20190;-60
2022/01/31 15:22:04;;;;;;;13.50;2.63;;;;;;;;;;5063642;28;20311;-60
2022/01/31 15:25:05;;;;;;;10.20;2.83;;;;;;;;;;5079040;28;20180;-60
2022/01/31 15:27:34;;;;;;;11.67;2.57;;;;;;;;;;5066016;28;20706;-60
2022/01/31 15:30:04;;;;;;;8.90;2.50;;;;;;;;;;5076601;28;20224;-61
2022/01/31 15:32:32;;;;;;;10.50;2.93;;;;;;;;;;5043625;28;20215;-61
2022/01/31 15:35:09;;;;;;;14.37;2.60;;;;;;;;;;5082926;28;20183;-61
2022/01/31 15:37:39;;;;;;;8.27;2.90;;;;;;;;;;5070726;28;20186;-61
2022/01/31 15:40:11;;;;;;;9.50;3.20;;;;;;;;;;5071795;28;20638;-62
2022/01/31 15:42:43;;;;;;;9.73;2.47;;;;;;;;;;5075534;28;20184;-61
2022/01/31 15:45:26;;;;;;;6.93;2.57;;;;;;;;;;5071742;28;20305;-61
2022/01/31 15:47:53;;;;;;;9.47;3.00;;;;;;;;;;5070483;28;20567;-62
2022/01/31 15:50:29;;;;;;;11.47;2.70;;;;;;;;;;5071050;28;20264;-61
2022/01/31 15:52:59;;;;;;;6.17;3.13;;;;;;;;;;5068723;28;20515;-61
2022/01/31 15:55:38;;;;;;;9.47;2.53;;;;;;;;;;5072087;28;20187;-62
2022/01/31 15:58:15;;;;;;;9.47;2.60;;;;;;;;;;5089720;28;20199;-61
2022/01/31 16:00:50;;;;;;;10.40;3.00;;;;;;;;;;5089922;28;20732;-62
2022/01/31 16:03:39;;;;;;;6.80;2.63;;;;;;;;;;5088798;28;20206;-62
2022/01/31 16:06:05;;;;;;;12.73;3.00;;;;;;;;;;5072012;28;20544;-61
2022/01/31 16:08:40;;;;;;;6.27;2.87;;;;;;;;;;5088224;28;20584;-62
2022/01/31 16:11:09;;;;;;;14.83;3.53;;;;;;;;;;5083228;28;20159;-61
2022/01/31 16:13:47;;;;;;;7.37;2.53;;;;;;;;;;5069866;28;20183;-62
2022/01/31 16:16:23;;;;;;;9.77;2.53;;;;;;;;;;5070063;28;20468;-61
2022/01/31 16:18:59;;;;;;;7.10;2.53;;;;;;;;;;5088613;28;20198;-61
2022/01/31 16:21:25;;;;;;;7.97;2.53;;;;;;;;;;5069208;28;20190;-61
2022/01/31 16:23:51;;;;;;;6.87;2.20;;;;;;;;;;5087988;28;20225;-62
2022/01/31 16:26:21;;;;;;;5.93;1.97;;;;;;;;;;5071845;28;20175;-62
2022/01/31 16:28:47;;;;;;;7.87;2.40;;;;;;;;;;5089495;28;20422;-62
2022/01/31 16:31:32;;;;;;;7.90;1.97;;;;;;;;;;5081193;28;20220;-62
2022/01/31 16:34:13;;;;;;;9.23;2.40;;;;;;;;;;5064154;28;20191;-62
2022/01/31 16:36:47;;;;;;;9.23;2.67;;;;;;;;;;5066876;28;20230;-62
2022/01/31 16:39:48;;;;;;;7.23;2.17;;;;;;;;;;5014222;28;20827;-61